首页
METAR-TAF:

METAR-TAF

机场 :

因帕爾, 印度

纬度: 24-45-36N, 经度: 93-53-48E, 海拔: 774米

当前天气观测

该预报发布于12小时和10分钟前的12:30 UTC
风速3节,风向南转西南
温度 25°C
湿度 100%
气压 1007 hPa
能見度: 5000
少量云层高于1000英尺
散云层高于1800英尺
少量云层高于3500英尺, 积雨云.
多云层高于9000英尺
轻雾,

METAR: VEIM 161230Z 21003KT 5000 BR FEW010 SCT018 FEW035CB BKN090 25/25 Q1007 NOSIG

时间: 06:10 (00:40 UTC)

预报

该预报发布于1小时和40分钟前的23:00 UTC
预报有效从17日的 00点(UTC)到 17日的 09点(UTC)
风速节,风向
能見度: 2500
散云层高于1600英尺
少量云层高于2500英尺, 积雨云.
多云层高于9000英尺
小雨, 轻雾
成为
从 17日的 04点(UTC)到 17日的 06点(UTC)
风速5节,风向南转南东
能見度: 4000
散云层高于1800英尺
多云层高于10000英尺
小雨, 轻雾,

TAF: VEIM 162300Z 1700/1709 00000KT 2500 -RA BR SCT016 FEW025CB BKN090 BECMG 1704/1706 16005KT 4000 -RA BR SCT018 BKN100

超过4000个机场的气象观测和天气预报(METAR&TAF报告)。

可查询的气象台以黄色和红色小点在地图上表示。

将鼠标移到小点上方,可查看气象台名称。

然后点击查看天气观测和预报。

如需切换地图:点击带黑十字的绿色按钮放大地图;点击带横线的绿色按钮缩小地图;或者点击绿色箭头查看邻近地区的地图。


METAR-TAF: